createdAt,value
2018-12-17T00:00:29.390Z,-8.60
2018-12-17T00:01:05.970Z,-8.60
2018-12-17T00:01:40.512Z,-8.50
2018-12-17T00:02:15.470Z,-8.50
2018-12-17T00:02:50.230Z,-8.50
2018-12-17T00:03:24.938Z,-8.50
2018-12-17T00:03:59.591Z,-8.50
2018-12-17T00:04:34.691Z,-8.50
2018-12-17T00:05:09.413Z,-8.50
2018-12-17T00:05:44.171Z,-8.50
2018-12-17T00:06:18.850Z,-8.50
2018-12-17T00:06:53.491Z,-8.50
2018-12-17T00:07:28.130Z,-8.60
2018-12-17T00:08:02.650Z,-8.60
2018-12-17T00:08:37.350Z,-8.60
2018-12-17T00:09:11.990Z,-8.60
2018-12-17T00:09:46.771Z,-8.60
2018-12-17T00:10:21.411Z,-8.60
2018-12-17T00:10:56.051Z,-8.60
2018-12-17T00:11:30.651Z,-8.60
2018-12-17T00:12:05.470Z,-8.60
2018-12-17T00:12:39.930Z,-8.60
2018-12-17T00:13:14.579Z,-8.60
2018-12-17T00:13:49.110Z,-8.60
2018-12-17T00:14:23.710Z,-8.60
2018-12-17T00:14:58.331Z,-8.60
2018-12-17T00:15:33.092Z,-8.60
2018-12-17T00:16:07.910Z,-8.60
2018-12-17T00:16:42.610Z,-8.60
2018-12-17T00:17:17.153Z,-8.60
2018-12-17T00:17:51.870Z,-8.60
2018-12-17T00:18:26.491Z,-8.60
2018-12-17T00:19:01.201Z,-8.60
2018-12-17T00:19:35.871Z,-8.60
2018-12-17T00:20:10.992Z,-8.60
2018-12-17T00:20:45.731Z,-8.60
2018-12-17T00:21:20.534Z,-8.60
2018-12-17T00:21:55.331Z,-8.70
2018-12-17T00:22:29.851Z,-8.70
2018-12-17T00:23:04.492Z,-8.70
2018-12-17T00:23:39.131Z,-8.70
2018-12-17T00:24:13.911Z,-8.70
2018-12-17T00:24:48.470Z,-8.70
2018-12-17T00:25:23.271Z,-8.80
2018-12-17T00:25:57.911Z,-8.80
2018-12-17T00:26:32.531Z,-8.90
2018-12-17T00:27:07.171Z,-8.90
2018-12-17T00:27:41.791Z,-8.90
2018-12-17T00:28:16.391Z,-9.00
2018-12-17T00:28:50.991Z,-9.00
2018-12-17T00:29:25.579Z,-9.00
2018-12-17T00:30:00.271Z,-9.10
2018-12-17T00:30:34.891Z,-9.00
2018-12-17T00:31:09.591Z,-9.10
2018-12-17T00:31:44.119Z,-9.10
2018-12-17T00:32:18.712Z,-9.10
2018-12-17T00:32:53.219Z,-9.00
2018-12-17T00:33:27.691Z,-9.10
2018-12-17T00:34:02.292Z,-9.10
2018-12-17T00:34:36.971Z,-9.10
2018-12-17T00:35:11.571Z,-9.10
2018-12-17T00:35:46.123Z,-9.20
2018-12-17T00:36:20.831Z,-9.20
2018-12-17T00:36:55.499Z,-9.20
2018-12-17T00:37:30.111Z,-9.20
2018-12-17T00:38:04.634Z,-9.20
2018-12-17T00:38:39.231Z,-9.20
2018-12-17T00:39:13.832Z,-9.20
2018-12-17T00:39:48.631Z,-9.20
2018-12-17T00:40:22.892Z,-9.20
2018-12-17T00:40:57.551Z,-9.20
2018-12-17T00:41:32.211Z,-9.20
2018-12-17T00:42:06.760Z,-9.20
2018-12-17T00:42:41.451Z,-9.20
2018-12-17T00:43:15.992Z,-9.20
2018-12-17T00:43:50.791Z,-9.30
2018-12-17T00:44:25.439Z,-9.30
2018-12-17T00:45:00.031Z,-9.20
2018-12-17T00:45:41.112Z,-9.30
2018-12-17T00:46:15.751Z,-9.30
2018-12-17T00:46:50.433Z,-9.20
2018-12-17T00:47:25.051Z,-9.30
2018-12-17T00:47:59.832Z,-9.30
2018-12-17T00:48:34.433Z,-9.30
2018-12-17T00:49:09.111Z,-9.30
2018-12-17T00:49:43.711Z,-9.40
2018-12-17T00:50:18.412Z,-9.40
2018-12-17T00:50:53.031Z,-9.40
2018-12-17T00:51:27.771Z,-9.40
2018-12-17T00:52:02.559Z,-9.50
2018-12-17T00:52:37.252Z,-9.50
2018-12-17T00:53:11.871Z,-9.40
2018-12-17T00:53:46.432Z,-9.40
2018-12-17T00:54:21.031Z,-9.40
2018-12-17T00:54:55.632Z,-9.30
2018-12-17T00:55:30.412Z,-9.30
2018-12-17T00:56:05.111Z,-9.20
2018-12-17T00:56:39.760Z,-9.20
2018-12-17T00:57:14.571Z,-9.10
2018-12-17T00:57:49.293Z,-9.10
2018-12-17T00:58:23.891Z,-9.10
2018-12-17T00:58:58.491Z,-9.10
2018-12-17T00:59:33.052Z,-9.00
2018-12-17T01:00:09.972Z,-9.00
2018-12-17T01:00:44.551Z,-9.00
2018-12-17T01:01:19.212Z,-8.90
2018-12-17T01:01:53.832Z,-8.90
2018-12-17T01:02:28.571Z,-8.90
2018-12-17T01:03:03.211Z,-8.90
2018-12-17T01:03:37.771Z,-8.80
2018-12-17T01:04:12.572Z,-8.80
2018-12-17T01:04:47.279Z,-8.80
2018-12-17T01:05:21.943Z,-8.80
2018-12-17T01:05:56.600Z,-8.70
2018-12-17T01:06:31.212Z,-8.70
2018-12-17T01:07:05.771Z,-8.60
2018-12-17T01:07:40.511Z,-8.60
2018-12-17T01:08:15.051Z,-8.50
2018-12-17T01:08:49.739Z,-8.50
2018-12-17T01:09:24.292Z,-8.50
2018-12-17T01:09:58.931Z,-8.40
2018-12-17T01:10:33.732Z,-8.30
2018-12-17T01:11:08.293Z,-8.30
2018-12-17T01:11:42.931Z,-8.30
2018-12-17T01:12:17.552Z,-8.20
2018-12-17T01:12:58.379Z,-8.20
2018-12-17T01:13:33.032Z,-8.10
2018-12-17T01:14:07.631Z,-8.10
2018-12-17T01:14:42.233Z,-8.00
2018-12-17T01:15:16.772Z,-8.00
2018-12-17T01:15:51.392Z,-8.00
2018-12-17T01:16:26.578Z,-7.90
2018-12-17T01:17:01.391Z,-7.90
2018-12-17T01:17:36.051Z,-7.90
2018-12-17T01:18:10.819Z,-7.80
2018-12-17T01:18:45.412Z,-7.80
2018-12-17T01:19:19.951Z,-7.80
2018-12-17T01:19:54.551Z,-7.70
2018-12-17T01:20:29.051Z,-7.70
2018-12-17T01:21:03.691Z,-7.70
2018-12-17T01:21:38.451Z,-7.70
2018-12-17T01:22:12.971Z,-7.70
2018-12-17T01:22:47.692Z,-7.60
2018-12-17T01:23:22.291Z,-7.60
2018-12-17T01:23:57.011Z,-7.60
2018-12-17T01:24:31.579Z,-7.60
2018-12-17T01:25:06.435Z,-7.50
2018-12-17T01:25:40.911Z,-7.50
2018-12-17T01:26:15.699Z,-7.50
2018-12-17T01:26:50.211Z,-7.40
2018-12-17T01:27:24.811Z,-7.40
2018-12-17T01:27:59.399Z,-7.30
2018-12-17T01:28:34.360Z,-7.30
2018-12-17T01:29:09.051Z,-7.30
2018-12-17T01:29:43.691Z,-7.20
2018-12-17T01:30:18.374Z,-7.20
2018-12-17T01:30:53.113Z,-7.20
2018-12-17T01:31:27.691Z,-7.10
2018-12-17T01:32:02.232Z,-7.10
2018-12-17T01:32:36.971Z,-7.10
2018-12-17T01:33:11.495Z,-7.10
2018-12-17T01:33:46.091Z,-7.10
2018-12-17T01:34:20.691Z,-7.00
2018-12-17T01:34:55.311Z,-7.00
2018-12-17T01:35:30.013Z,-7.00
2018-12-17T01:36:04.771Z,-6.90
2018-12-17T01:36:39.333Z,-6.90
2018-12-17T01:37:14.051Z,-6.90
2018-12-17T01:37:48.711Z,-6.80
2018-12-17T01:38:23.291Z,-6.80
2018-12-17T01:38:57.991Z,-6.80
2018-12-17T01:39:32.612Z,-6.70
2018-12-17T01:40:07.512Z,-6.70
2018-12-17T01:40:42.094Z,-6.70
2018-12-17T01:41:16.991Z,-6.60
2018-12-17T01:41:51.531Z,-6.60
2018-12-17T01:42:26.131Z,-6.60
2018-12-17T01:43:00.711Z,-6.60
2018-12-17T01:43:35.314Z,-6.50
2018-12-17T01:44:09.951Z,-6.50
2018-12-17T01:44:44.511Z,-6.50
2018-12-17T01:45:19.171Z,-6.50
2018-12-17T01:45:53.771Z,-6.40
2018-12-17T01:46:28.431Z,-6.40
2018-12-17T01:47:03.191Z,-6.40
2018-12-17T01:47:37.719Z,-6.40
2018-12-17T01:48:12.412Z,-6.40
2018-12-17T01:48:47.092Z,-6.40
2018-12-17T01:49:21.891Z,-6.30
2018-12-17T01:49:56.512Z,-6.30
2018-12-17T01:50:31.113Z,-6.30
2018-12-17T01:51:05.651Z,-6.30
2018-12-17T01:51:40.294Z,-6.30
2018-12-17T01:52:14.931Z,-6.30
2018-12-17T01:52:49.571Z,-6.20
2018-12-17T01:53:24.131Z,-6.20
2018-12-17T01:53:58.838Z,-6.20
2018-12-17T01:54:33.771Z,-6.20
2018-12-17T01:55:08.371Z,-6.20
2018-12-17T01:55:42.993Z,-6.20
2018-12-17T01:56:17.571Z,-6.10
2018-12-17T01:56:52.151Z,-6.10
2018-12-17T01:57:26.911Z,-6.10
2018-12-17T01:58:01.751Z,-6.10
2018-12-17T01:58:36.391Z,-6.10
2018-12-17T01:59:11.031Z,-6.10
2018-12-17T01:59:45.837Z,-6.10
2018-12-17T02:00:20.795Z,-6.10
2018-12-17T02:00:55.359Z,-6.10
2018-12-17T02:01:29.951Z,-6.10
2018-12-17T02:02:04.551Z,-6.10
2018-12-17T02:02:39.130Z,-6.10
2018-12-17T02:03:15.951Z,-6.10
2018-12-17T02:03:50.591Z,-6.10
2018-12-17T02:04:25.351Z,-6.10
2018-12-17T02:04:59.951Z,-6.10
2018-12-17T02:05:34.571Z,-6.10
2018-12-17T02:06:09.291Z,-6.10
2018-12-17T02:06:43.871Z,-6.10
2018-12-17T02:07:18.451Z,-6.10
2018-12-17T02:07:52.971Z,-6.10
2018-12-17T02:08:28.111Z,-6.10
2018-12-17T02:09:02.919Z,-6.10
2018-12-17T02:09:37.471Z,-6.10
2018-12-17T02:10:12.352Z,-6.10
2018-12-17T02:10:47.091Z,-6.20
2018-12-17T02:11:21.931Z,-6.20
2018-12-17T02:11:56.691Z,-6.20
2018-12-17T02:12:31.351Z,-6.20
2018-12-17T02:13:06.012Z,-6.20
2018-12-17T02:13:40.971Z,-6.20
2018-12-17T02:14:15.571Z,-6.20
2018-12-17T02:14:50.072Z,-6.30
2018-12-17T02:15:24.871Z,-6.20
2018-12-17T02:15:59.492Z,-6.30
2018-12-17T02:16:34.140Z,-6.30
2018-12-17T02:17:08.899Z,-6.30
2018-12-17T02:17:43.651Z,-6.30
2018-12-17T02:18:18.192Z,-6.30
2018-12-17T02:18:52.990Z,-6.30
2018-12-17T02:19:27.560Z,-6.40
2018-12-17T02:20:02.610Z,-6.40
2018-12-17T02:20:37.219Z,-6.40
2018-12-17T02:21:11.831Z,-6.40
2018-12-17T02:21:46.491Z,-6.40
2018-12-17T02:22:21.291Z,-6.50
2018-12-17T02:22:55.971Z,-6.50
2018-12-17T02:23:30.551Z,-6.50
2018-12-17T02:24:05.151Z,-6.50
2018-12-17T02:24:39.751Z,-6.50
2018-12-17T02:25:14.531Z,-6.60
2018-12-17T02:25:49.192Z,-6.60
2018-12-17T02:26:23.731Z,-6.60
2018-12-17T02:26:58.471Z,-6.70
2018-12-17T02:27:33.013Z,-6.70
2018-12-17T02:28:07.692Z,-6.70
2018-12-17T02:28:42.431Z,-6.80
2018-12-17T02:29:17.052Z,-6.80
2018-12-17T02:29:51.811Z,-6.90
2018-12-17T02:30:26.461Z,-6.90
2018-12-17T02:31:07.471Z,-6.90
2018-12-17T02:31:42.013Z,-6.90
2018-12-17T02:32:16.611Z,-6.90
2018-12-17T02:32:51.242Z,-6.90
2018-12-17T02:33:25.931Z,-7.00
2018-12-17T02:34:00.594Z,-7.00
2018-12-17T02:34:35.261Z,-7.00
2018-12-17T02:35:09.851Z,-7.00
2018-12-17T02:35:44.391Z,-7.00
2018-12-17T02:36:19.299Z,-7.00
2018-12-17T02:36:53.831Z,-6.90
2018-12-17T02:37:28.410Z,-6.90
2018-12-17T02:38:03.051Z,-6.90
2018-12-17T02:38:37.651Z,-6.90
2018-12-17T02:39:12.170Z,-6.80
2018-12-17T02:39:46.671Z,-6.80
2018-12-17T02:40:21.311Z,-6.80
2018-12-17T02:40:55.911Z,-6.80
2018-12-17T02:41:30.751Z,-6.80
2018-12-17T02:42:05.412Z,-6.70
2018-12-17T02:42:40.051Z,-6.70
2018-12-17T02:43:14.991Z,-6.70
2018-12-17T02:43:49.790Z,-6.70
2018-12-17T02:44:24.531Z,-6.80
2018-12-17T02:44:59.031Z,-6.80
2018-12-17T02:45:33.612Z,-6.80
2018-12-17T02:46:08.311Z,-6.80
2018-12-17T02:46:43.112Z,-6.80
2018-12-17T02:47:17.620Z,-6.80
2018-12-17T02:47:52.212Z,-6.80
2018-12-17T02:48:26.911Z,-6.80
2018-12-17T02:49:01.570Z,-6.80
2018-12-17T02:49:36.171Z,-6.80
2018-12-17T02:50:10.810Z,-6.80
2018-12-17T02:50:45.571Z,-6.80
2018-12-17T02:51:20.196Z,-6.80
2018-12-17T02:51:54.836Z,-6.80
2018-12-17T02:52:29.330Z,-6.80
2018-12-17T02:53:04.026Z,-6.80
2018-12-17T02:53:38.750Z,-6.90
2018-12-17T02:54:13.291Z,-6.80
2018-12-17T02:54:47.832Z,-6.80
2018-12-17T02:55:22.458Z,-6.80
2018-12-17T02:55:56.950Z,-6.80
2018-12-17T02:56:31.558Z,-6.80
2018-12-17T02:57:06.232Z,-6.80
2018-12-17T02:57:40.815Z,-6.80
2018-12-17T02:58:15.492Z,-6.80
2018-12-17T02:58:50.130Z,-6.80
2018-12-17T02:59:24.810Z,-6.80
2018-12-17T02:59:59.570Z,-6.80
2018-12-17T03:00:34.796Z,-6.80
2018-12-17T03:01:09.432Z,-6.80
2018-12-17T03:01:44.039Z,-6.80
2018-12-17T03:02:18.671Z,-6.80
2018-12-17T03:02:53.151Z,-6.80
2018-12-17T03:03:27.711Z,-6.80
2018-12-17T03:04:02.270Z,-6.80
2018-12-17T03:04:36.870Z,-6.90
2018-12-17T03:05:11.530Z,-6.90
2018-12-17T03:05:46.150Z,-6.90
2018-12-17T03:06:20.690Z,-6.90
2018-12-17T03:06:55.410Z,-6.90
2018-12-17T03:07:30.130Z,-6.90
2018-12-17T03:08:04.730Z,-6.90
2018-12-17T03:08:39.330Z,-6.90
2018-12-17T03:09:13.951Z,-6.90
2018-12-17T03:09:48.590Z,-6.90
2018-12-17T03:10:23.311Z,-7.00
2018-12-17T03:10:57.898Z,-7.00
2018-12-17T03:11:32.631Z,-7.00
2018-12-17T03:12:07.311Z,-7.00
2018-12-17T03:12:42.054Z,-7.00
2018-12-17T03:13:16.670Z,-7.00
2018-12-17T03:13:51.270Z,-7.00
2018-12-17T03:14:25.793Z,-7.00
2018-12-17T03:15:00.373Z,-7.10
2018-12-17T03:15:34.953Z,-7.10
2018-12-17T03:16:09.571Z,-7.20
2018-12-17T03:16:44.131Z,-7.20
2018-12-17T03:17:18.838Z,-7.30
2018-12-17T03:17:53.470Z,-7.30
2018-12-17T03:18:28.073Z,-7.30
2018-12-17T03:19:02.610Z,-7.40
2018-12-17T03:19:37.371Z,-7.50
2018-12-17T03:20:12.012Z,-7.50
2018-12-17T03:20:46.685Z,-7.50
2018-12-17T03:21:21.359Z,-7.60
2018-12-17T03:21:55.972Z,-7.70
2018-12-17T03:22:30.511Z,-7.70
2018-12-17T03:23:05.170Z,-7.70
2018-12-17T03:23:39.710Z,-7.70
2018-12-17T03:24:14.472Z,-7.80
2018-12-17T03:24:49.030Z,-7.80
2018-12-17T03:25:23.758Z,-7.80
2018-12-17T03:25:58.498Z,-7.80
2018-12-17T03:26:33.111Z,-7.80
2018-12-17T03:27:07.590Z,-7.80
2018-12-17T03:27:42.196Z,-7.80
2018-12-17T03:28:16.872Z,-7.90
2018-12-17T03:28:52.097Z,-7.90
2018-12-17T03:29:26.811Z,-7.90
2018-12-17T03:30:01.391Z,-7.90
2018-12-17T03:30:36.112Z,-7.90
2018-12-17T03:31:10.672Z,-7.80
2018-12-17T03:31:45.492Z,-7.80
2018-12-17T03:32:20.212Z,-7.80
2018-12-17T03:32:54.903Z,-7.80
2018-12-17T03:33:29.612Z,-7.80
2018-12-17T03:34:04.212Z,-7.80
2018-12-17T03:34:38.691Z,-7.80
2018-12-17T03:35:13.390Z,-7.90
2018-12-17T03:35:48.011Z,-7.80
2018-12-17T03:36:22.691Z,-7.90
2018-12-17T03:36:57.211Z,-7.90
2018-12-17T03:37:31.831Z,-7.90
2018-12-17T03:38:06.439Z,-7.90
2018-12-17T03:38:41.114Z,-7.90
2018-12-17T03:39:15.792Z,-7.90
2018-12-17T03:39:50.510Z,-7.90
2018-12-17T03:40:25.150Z,-7.90
2018-12-17T03:40:59.772Z,-7.90
2018-12-17T03:41:34.211Z,-7.90
2018-12-17T03:42:09.111Z,-7.90
2018-12-17T03:42:43.751Z,-7.80
2018-12-17T03:43:18.377Z,-7.80
2018-12-17T03:43:52.971Z,-7.80
2018-12-17T03:44:27.551Z,-7.80
2018-12-17T03:45:02.250Z,-7.70
2018-12-17T03:45:36.859Z,-7.70
2018-12-17T03:46:11.331Z,-7.70
2018-12-17T03:46:46.078Z,-7.60
2018-12-17T03:47:20.631Z,-7.60
2018-12-17T03:47:55.211Z,-7.60
2018-12-17T03:48:29.752Z,-7.50
2018-12-17T03:49:04.417Z,-7.50
2018-12-17T03:49:38.971Z,-7.40
2018-12-17T03:50:13.551Z,-7.30
2018-12-17T03:50:48.072Z,-7.30
2018-12-17T03:51:22.631Z,-7.30
2018-12-17T03:51:57.232Z,-7.20
2018-12-17T03:52:31.751Z,-7.20
2018-12-17T03:53:06.377Z,-7.10
2018-12-17T03:53:40.951Z,-7.00
2018-12-17T03:54:15.871Z,-7.00
2018-12-17T03:54:50.472Z,-6.90
2018-12-17T03:55:25.114Z,-6.90
2018-12-17T03:55:59.751Z,-6.90
2018-12-17T03:56:34.351Z,-6.80
2018-12-17T03:57:08.967Z,-6.80
2018-12-17T03:57:43.666Z,-6.80
2018-12-17T03:58:18.214Z,-6.70
2018-12-17T03:58:59.049Z,-6.70
2018-12-17T03:59:29.555Z,-6.70
2018-12-17T04:00:04.806Z,-6.70
2018-12-17T04:00:39.467Z,-6.60
2018-12-17T04:01:14.214Z,-6.60
2018-12-17T04:01:48.646Z,-6.60
2018-12-17T04:02:23.247Z,-6.60
2018-12-17T04:02:57.907Z,-6.60
2018-12-17T04:03:32.526Z,-6.50
2018-12-17T04:04:07.086Z,-6.50
2018-12-17T04:04:41.767Z,-6.40
2018-12-17T04:05:16.406Z,-6.40
2018-12-17T04:05:50.967Z,-6.40
2018-12-17T04:06:25.593Z,-6.30
2018-12-17T04:07:00.146Z,-6.30
2018-12-17T04:07:34.766Z,-6.20
2018-12-17T04:08:09.366Z,-6.30
2018-12-17T04:08:43.846Z,-6.20
2018-12-17T04:09:18.506Z,-6.20
2018-12-17T04:09:53.306Z,-6.20
2018-12-17T04:10:27.946Z,-6.20
2018-12-17T04:11:02.546Z,-6.20
2018-12-17T04:11:37.246Z,-6.10
2018-12-17T04:12:11.765Z,-6.10
2018-12-17T04:12:46.712Z,-6.10
2018-12-17T04:13:21.468Z,-6.00
2018-12-17T04:13:56.189Z,-6.00
2018-12-17T04:14:30.888Z,-6.00
2018-12-17T04:15:05.625Z,-6.00
2018-12-17T04:15:40.452Z,-5.90
2018-12-17T04:16:15.027Z,-5.90
2018-12-17T04:16:49.635Z,-5.90
2018-12-17T04:17:24.224Z,-5.90
2018-12-17T04:17:59.023Z,-5.80
2018-12-17T04:18:33.903Z,-5.80
2018-12-17T04:19:08.423Z,-5.80
2018-12-17T04:19:43.063Z,-5.70
2018-12-17T04:20:17.844Z,-5.70
2018-12-17T04:20:52.343Z,-5.70
2018-12-17T04:21:27.004Z,-5.60
2018-12-17T04:22:01.663Z,-5.60
2018-12-17T04:22:36.212Z,-5.60
2018-12-17T04:23:10.844Z,-5.50
2018-12-17T04:23:45.444Z,-5.50
2018-12-17T04:24:20.005Z,-5.50
2018-12-17T04:24:54.693Z,-5.40
2018-12-17T04:25:29.365Z,-5.40
2018-12-17T04:26:04.084Z,-5.40
2018-12-17T04:26:38.631Z,-5.40
2018-12-17T04:27:13.144Z,-5.30
2018-12-17T04:27:47.624Z,-5.30
2018-12-17T04:28:22.406Z,-5.30
2018-12-17T04:28:56.991Z,-5.20
2018-12-17T04:29:31.605Z,-5.20
2018-12-17T04:30:06.631Z,-5.20
2018-12-17T04:30:41.303Z,-5.20
2018-12-17T04:31:15.845Z,-5.20
2018-12-17T04:31:50.447Z,-5.20
2018-12-17T04:32:24.963Z,-5.20
2018-12-17T04:32:59.584Z,-5.20
2018-12-17T04:33:34.304Z,-5.20
2018-12-17T04:34:08.945Z,-5.10
2018-12-17T04:34:43.543Z,-5.10
2018-12-17T04:35:18.164Z,-5.10
2018-12-17T04:35:53.044Z,-5.10
2018-12-17T04:36:27.604Z,-5.10
2018-12-17T04:37:02.252Z,-5.10
2018-12-17T04:37:37.084Z,-5.10
2018-12-17T04:38:11.943Z,-5.10
2018-12-17T04:38:46.724Z,-5.10
2018-12-17T04:39:21.327Z,-5.00
2018-12-17T04:39:55.946Z,-5.10
2018-12-17T04:40:30.568Z,-5.00
2018-12-17T04:41:05.151Z,-5.00
2018-12-17T04:41:39.766Z,-4.90
2018-12-17T04:42:14.452Z,-4.90
2018-12-17T04:42:49.204Z,-4.90
2018-12-17T04:43:23.691Z,-4.90
2018-12-17T04:43:58.405Z,-4.90
2018-12-17T04:44:33.044Z,-4.90
2018-12-17T04:45:08.187Z,-4.80
2018-12-17T04:45:42.843Z,-4.80
2018-12-17T04:46:17.563Z,-4.80
2018-12-17T04:46:52.310Z,-4.80
2018-12-17T04:47:27.055Z,-4.80
2018-12-17T04:48:01.744Z,-4.80
2018-12-17T04:48:36.283Z,-4.80
2018-12-17T04:49:11.025Z,-4.80
2018-12-17T04:49:45.724Z,-4.80
2018-12-17T04:50:20.506Z,-4.80
2018-12-17T04:50:55.045Z,-4.80
2018-12-17T04:51:30.026Z,-4.70
2018-12-17T04:52:04.564Z,-4.70
2018-12-17T04:52:39.164Z,-4.70
2018-12-17T04:53:13.863Z,-4.70
2018-12-17T04:53:48.352Z,-4.60
2018-12-17T04:54:22.844Z,-4.60
2018-12-17T04:54:57.432Z,-4.70
2018-12-17T04:55:32.224Z,-4.70
2018-12-17T04:56:06.846Z,-4.70
2018-12-17T04:56:41.513Z,-4.60
2018-12-17T04:57:16.084Z,-4.60
2018-12-17T04:57:50.884Z,-4.60
2018-12-17T04:58:25.443Z,-4.60
2018-12-17T04:58:59.945Z,-4.60
2018-12-17T04:59:34.444Z,-4.60
2018-12-17T05:00:10.224Z,-4.60
2018-12-17T05:00:45.004Z,-4.60
2018-12-17T05:01:19.624Z,-4.60
2018-12-17T05:01:54.344Z,-4.60
2018-12-17T05:02:29.044Z,-4.60
2018-12-17T05:03:03.585Z,-4.60
2018-12-17T05:03:38.163Z,-4.60
2018-12-17T05:04:12.804Z,-4.60
2018-12-17T05:04:47.424Z,-4.60
2018-12-17T05:05:22.044Z,-4.60
2018-12-17T05:05:56.684Z,-4.60
2018-12-17T05:06:31.272Z,-4.60
2018-12-17T05:07:05.926Z,-4.60
2018-12-17T05:07:40.504Z,-4.60
2018-12-17T05:08:15.210Z,-4.60
2018-12-17T05:08:49.823Z,-4.60
2018-12-17T05:09:24.608Z,-4.60
2018-12-17T05:09:59.185Z,-4.60
2018-12-17T05:10:34.323Z,-4.60
2018-12-17T05:11:08.943Z,-4.60
2018-12-17T05:11:43.684Z,-4.50
2018-12-17T05:12:18.385Z,-4.50
2018-12-17T05:12:53.025Z,-4.50
2018-12-17T05:13:27.607Z,-4.50
2018-12-17T05:14:02.383Z,-4.50
2018-12-17T05:14:37.004Z,-4.40
2018-12-17T05:15:11.648Z,-4.40
2018-12-17T05:15:46.351Z,-4.40
2018-12-17T05:16:20.952Z,-4.40
2018-12-17T05:16:55.504Z,-4.40
2018-12-17T05:17:30.386Z,-4.40
2018-12-17T05:18:04.964Z,-4.40
2018-12-17T05:18:39.624Z,-4.40
2018-12-17T05:19:14.284Z,-4.40
2018-12-17T05:19:48.924Z,-4.30
2018-12-17T05:20:23.583Z,-4.30
2018-12-17T05:20:58.345Z,-4.30
2018-12-17T05:21:33.083Z,-4.30
2018-12-17T05:22:07.704Z,-4.30
2018-12-17T05:22:42.403Z,-4.40
2018-12-17T05:23:17.065Z,-4.40
2018-12-17T05:23:51.824Z,-4.40
2018-12-17T05:24:26.414Z,-4.30
2018-12-17T05:25:01.164Z,-4.30
2018-12-17T05:25:35.743Z,-4.30
2018-12-17T05:26:10.208Z,-4.30
2018-12-17T05:26:44.944Z,-4.30
2018-12-17T05:27:19.607Z,-4.30
2018-12-17T05:27:54.266Z,-4.30
2018-12-17T05:28:29.004Z,-4.30
2018-12-17T05:29:03.610Z,-4.20
2018-12-17T05:29:38.123Z,-4.20
2018-12-17T05:30:12.903Z,-4.20
2018-12-17T05:30:47.664Z,-4.20
2018-12-17T05:31:22.363Z,-4.20
2018-12-17T05:31:57.013Z,-4.20
2018-12-17T05:32:31.552Z,-4.20
2018-12-17T05:33:06.443Z,-4.20
2018-12-17T05:33:41.124Z,-4.20
2018-12-17T05:34:15.706Z,-4.20
2018-12-17T05:34:50.386Z,-4.20
2018-12-17T05:35:25.165Z,-4.20
2018-12-17T05:35:59.963Z,-4.20
2018-12-17T05:36:34.610Z,-4.20
2018-12-17T05:37:09.408Z,-4.20
2018-12-17T05:37:44.066Z,-4.20
2018-12-17T05:38:19.154Z,-4.10
2018-12-17T05:38:53.878Z,-4.10
2018-12-17T05:39:28.451Z,-4.10
2018-12-17T05:40:03.053Z,-4.10
2018-12-17T05:40:37.792Z,-4.00
2018-12-17T05:41:12.293Z,-4.00
2018-12-17T05:41:46.951Z,-4.00
2018-12-17T05:42:21.535Z,-4.00
2018-12-17T05:42:56.132Z,-4.00
2018-12-17T05:43:30.751Z,-4.00
2018-12-17T05:44:05.391Z,-4.00
2018-12-17T05:44:40.051Z,-4.00
2018-12-17T05:45:14.698Z,-3.90
2018-12-17T05:45:49.271Z,-3.90
2018-12-17T05:46:23.770Z,-4.00
2018-12-17T05:46:58.470Z,-3.90
2018-12-17T05:47:33.111Z,-3.90
2018-12-17T05:48:07.691Z,-3.90
2018-12-17T05:48:42.279Z,-3.90
2018-12-17T05:49:17.210Z,-3.90
2018-12-17T05:49:51.971Z,-3.90
2018-12-17T05:50:26.651Z,-3.90
2018-12-17T05:51:01.251Z,-3.90
2018-12-17T05:51:35.930Z,-3.90
2018-12-17T05:52:10.687Z,-3.90
2018-12-17T05:52:45.467Z,-3.90
2018-12-17T05:53:20.147Z,-3.90
2018-12-17T05:53:54.828Z,-3.90
2018-12-17T05:54:29.447Z,-3.90
2018-12-17T05:55:04.237Z,-3.90
2018-12-17T05:55:38.776Z,-3.90
2018-12-17T05:56:13.427Z,-3.90
2018-12-17T05:56:48.067Z,-3.90
2018-12-17T05:57:22.807Z,-3.90
2018-12-17T05:57:57.535Z,-4.00
2018-12-17T05:58:32.187Z,-4.00
2018-12-17T05:59:06.926Z,-4.00
2018-12-17T05:59:41.546Z,-4.00
2018-12-17T06:05:26.606Z,-3.90
2018-12-17T06:06:00.966Z,-4.00
2018-12-17T06:06:35.526Z,-4.00
2018-12-17T06:07:10.126Z,-4.00
2018-12-17T06:07:44.727Z,-4.00
2018-12-17T06:08:19.287Z,-4.00
2018-12-17T06:08:54.066Z,-4.00
2018-12-17T06:09:28.686Z,-4.00
2018-12-17T06:10:03.286Z,-4.00
2018-12-17T06:10:37.926Z,-4.00
2018-12-17T06:11:12.685Z,-4.00
2018-12-17T06:11:47.265Z,-4.00
2018-12-17T06:12:21.865Z,-4.00
2018-12-17T06:12:56.466Z,-4.00
2018-12-17T06:13:31.145Z,-4.10
2018-12-17T06:14:05.705Z,-4.00
2018-12-17T06:14:40.466Z,-4.10
2018-12-17T06:15:15.025Z,-4.00
2018-12-17T06:15:49.867Z,-4.10
2018-12-17T06:16:24.545Z,-4.10
2018-12-17T06:16:59.165Z,-4.00
2018-12-17T06:17:33.766Z,-4.00
2018-12-17T06:18:08.346Z,-4.00
2018-12-17T06:18:43.046Z,-4.00
2018-12-17T06:19:17.685Z,-4.00
2018-12-17T06:19:52.206Z,-4.00
2018-12-17T06:20:26.758Z,-4.00
2018-12-17T06:21:01.670Z,-4.00
2018-12-17T06:21:36.385Z,-4.00
2018-12-17T06:22:11.065Z,-4.00
2018-12-17T06:22:45.986Z,-4.00
2018-12-17T06:23:20.626Z,-4.00
2018-12-17T06:23:55.225Z,-4.00
2018-12-17T06:24:30.207Z,-4.00
2018-12-17T06:25:04.807Z,-4.00
2018-12-17T06:25:39.354Z,-4.00
2018-12-17T06:26:14.148Z,-4.00
2018-12-17T06:26:48.806Z,-4.00
2018-12-17T06:27:23.394Z,-4.00
2018-12-17T06:27:58.045Z,-3.90
2018-12-17T06:28:32.866Z,-3.90
2018-12-17T06:29:07.609Z,-4.00
2018-12-17T06:29:42.253Z,-4.00
2018-12-17T06:30:16.785Z,-3.90
2018-12-17T06:30:51.466Z,-3.90
2018-12-17T06:31:26.009Z,-3.90
2018-12-17T06:32:00.618Z,-3.90
2018-12-17T06:32:35.186Z,-3.90
2018-12-17T06:33:15.521Z,-3.90
2018-12-17T06:33:46.425Z,-3.90
2018-12-17T06:34:21.016Z,-3.90
2018-12-17T06:34:55.726Z,-3.90
2018-12-17T06:35:30.488Z,-3.90
2018-12-17T06:36:05.099Z,-3.90
2018-12-17T06:36:39.805Z,-3.90
2018-12-17T06:37:14.346Z,-3.90
2018-12-17T06:37:49.094Z,-3.90
2018-12-17T06:38:23.685Z,-3.90
2018-12-17T06:38:58.345Z,-3.90
2018-12-17T06:39:33.365Z,-3.90
2018-12-17T06:40:10.388Z,-3.90
2018-12-17T06:40:45.130Z,-3.90
2018-12-17T06:41:19.914Z,-3.90
2018-12-17T06:41:54.553Z,-3.90
2018-12-17T06:42:29.233Z,-3.90
2018-12-17T06:43:03.774Z,-3.80
2018-12-17T06:43:38.354Z,-3.80
2018-12-17T06:44:13.013Z,-3.80
2018-12-17T06:44:47.735Z,-3.80
2018-12-17T06:45:22.335Z,-3.80
2018-12-17T06:45:57.056Z,-3.80
2018-12-17T06:46:31.647Z,-3.80
2018-12-17T06:47:06.447Z,-3.80
2018-12-17T06:47:41.227Z,-3.80
2018-12-17T06:48:17.249Z,-3.80
2018-12-17T06:48:52.067Z,-3.80
2018-12-17T06:49:26.676Z,-3.80
2018-12-17T06:50:01.368Z,-3.80
2018-12-17T06:50:35.988Z,-3.80
2018-12-17T06:51:10.999Z,-3.80
2018-12-17T06:51:45.791Z,-3.70
2018-12-17T06:52:20.571Z,-3.80
2018-12-17T06:52:55.151Z,-3.70
2018-12-17T06:53:29.611Z,-3.70
2018-12-17T06:54:04.212Z,-3.70
2018-12-17T06:54:38.831Z,-3.70
2018-12-17T06:55:13.474Z,-3.70
2018-12-17T06:55:48.154Z,-3.70
2018-12-17T06:56:22.774Z,-3.70
2018-12-17T06:56:57.533Z,-3.70
2018-12-17T06:57:32.277Z,-3.70
2018-12-17T06:58:06.872Z,-3.70
2018-12-17T06:58:41.672Z,-3.70
2018-12-17T06:59:16.244Z,-3.70
2018-12-17T06:59:51.025Z,-3.60
2018-12-17T07:00:25.743Z,-3.60
2018-12-17T07:01:00.344Z,-3.60
2018-12-17T07:01:34.906Z,-3.60
2018-12-17T07:02:09.723Z,-3.60
2018-12-17T07:02:44.419Z,-3.60
2018-12-17T07:03:19.123Z,-3.60
2018-12-17T07:03:53.704Z,-3.60
2018-12-17T07:04:28.408Z,-3.60
2018-12-17T07:05:03.144Z,-3.60
2018-12-17T07:05:37.866Z,-3.60
2018-12-17T07:06:12.344Z,-3.60
2018-12-17T07:06:47.203Z,-3.60
2018-12-17T07:07:21.764Z,-3.60
2018-12-17T07:07:56.483Z,-3.60
2018-12-17T07:08:31.083Z,-3.60
2018-12-17T07:09:07.263Z,-3.60
2018-12-17T07:09:41.884Z,-3.60
2018-12-17T07:10:16.484Z,-3.60
2018-12-17T07:10:51.043Z,-3.60
2018-12-17T07:11:25.806Z,-3.60
2018-12-17T07:12:00.452Z,-3.60
2018-12-17T07:12:35.010Z,-3.60
2018-12-17T07:13:09.669Z,-3.60
2018-12-17T07:13:44.250Z,-3.60
2018-12-17T07:14:18.790Z,-3.50
2018-12-17T07:14:53.409Z,-3.60
2018-12-17T07:15:28.010Z,-3.50
2018-12-17T07:16:02.612Z,-3.50
2018-12-17T07:16:37.130Z,-3.50
2018-12-17T07:17:11.757Z,-3.50
2018-12-17T07:17:46.486Z,-3.40
2018-12-17T07:18:21.154Z,-3.50
2018-12-17T07:18:55.972Z,-3.40
2018-12-17T07:19:30.630Z,-3.40
2018-12-17T07:20:05.546Z,-3.40
2018-12-17T07:20:40.130Z,-3.40
2018-12-17T07:21:14.829Z,-3.40
2018-12-17T07:21:49.386Z,-3.40
2018-12-17T07:22:24.030Z,-3.40
2018-12-17T07:22:58.670Z,-3.40
2018-12-17T07:23:33.371Z,-3.40
2018-12-17T07:24:07.990Z,-3.40
2018-12-17T07:24:42.470Z,-3.40
2018-12-17T07:25:16.910Z,-3.40
2018-12-17T07:25:52.216Z,-3.40
2018-12-17T07:26:26.817Z,-3.40
2018-12-17T07:27:01.495Z,-3.40
2018-12-17T07:27:36.255Z,-3.40
2018-12-17T07:28:10.815Z,-3.40
2018-12-17T07:28:45.571Z,-3.40
2018-12-17T07:29:20.112Z,-3.30
2018-12-17T07:29:54.728Z,-3.30
2018-12-17T07:30:29.377Z,-3.30
2018-12-17T07:31:04.153Z,-3.30
2018-12-17T07:31:38.696Z,-3.30
2018-12-17T07:32:13.404Z,-3.20